sensor_id;sensor_type;location;lat;lon;timestamp;temperature;humidity
41678;DHT22;27364;49.026;8.712;2023-08-20T00:00:09;21.90;99.90
41678;DHT22;27364;49.026;8.712;2023-08-20T00:02:37;21.80;99.90
41678;DHT22;27364;49.026;8.712;2023-08-20T00:05:03;21.80;99.90
41678;DHT22;27364;49.026;8.712;2023-08-20T00:07:30;21.80;99.90
41678;DHT22;27364;49.026;8.712;2023-08-20T00:09:56;21.80;99.90
41678;DHT22;27364;49.026;8.712;2023-08-20T00:12:21;21.80;99.90
41678;DHT22;27364;49.026;8.712;2023-08-20T00:14:58;21.70;99.90
41678;DHT22;27364;49.026;8.712;2023-08-20T00:17:31;21.70;99.90
41678;DHT22;27364;49.026;8.712;2023-08-20T00:19:57;21.70;99.90
41678;DHT22;27364;49.026;8.712;2023-08-20T00:22:23;21.70;99.90
41678;DHT22;27364;49.026;8.712;2023-08-20T00:24:50;21.60;99.90
41678;DHT22;27364;49.026;8.712;2023-08-20T00:27:17;21.60;99.90
41678;DHT22;27364;49.026;8.712;2023-08-20T00:29:42;21.60;99.90
41678;DHT22;27364;49.026;8.712;2023-08-20T00:32:08;21.50;99.90
41678;DHT22;27364;49.026;8.712;2023-08-20T00:34:33;21.60;99.90
41678;DHT22;27364;49.026;8.712;2023-08-20T00:37:00;21.60;99.90
41678;DHT22;27364;49.026;8.712;2023-08-20T00:39:26;21.60;99.90
41678;DHT22;27364;49.026;8.712;2023-08-20T00:41:51;21.60;99.90
41678;DHT22;27364;49.026;8.712;2023-08-20T00:44:17;21.60;99.90
41678;DHT22;27364;49.026;8.712;2023-08-20T00:46:42;21.60;99.90
41678;DHT22;27364;49.026;8.712;2023-08-20T00:49:08;21.50;99.90
41678;DHT22;27364;49.026;8.712;2023-08-20T00:51:34;21.50;99.90
41678;DHT22;27364;49.026;8.712;2023-08-20T00:54:01;21.50;99.90
41678;DHT22;27364;49.026;8.712;2023-08-20T00:56:27;21.50;99.90
41678;DHT22;27364;49.026;8.712;2023-08-20T00:58:53;21.50;99.90
41678;DHT22;27364;49.026;8.712;2023-08-20T01:01:19;21.50;99.90
41678;DHT22;27364;49.026;8.712;2023-08-20T01:03:45;21.50;99.90
41678;DHT22;27364;49.026;8.712;2023-08-20T01:09:05;21.50;99.90
41678;DHT22;27364;49.026;8.712;2023-08-20T01:11:37;21.50;99.90
41678;DHT22;27364;49.026;8.712;2023-08-20T01:14:17;21.40;99.90
41678;DHT22;27364;49.026;8.712;2023-08-20T01:16:45;21.40;99.90
41678;DHT22;27364;49.026;8.712;2023-08-20T01:19:19;21.40;99.90
41678;DHT22;27364;49.026;8.712;2023-08-20T01:29:50;21.30;99.90
41678;DHT22;27364;49.026;8.712;2023-08-20T01:32:16;21.30;99.90
41678;DHT22;27364;49.026;8.712;2023-08-20T01:34:42;21.20;99.90
41678;DHT22;27364;49.026;8.712;2023-08-20T01:37:08;21.20;99.90
41678;DHT22;27364;49.026;8.712;2023-08-20T01:39:33;21.20;99.90
41678;DHT22;27364;49.026;8.712;2023-08-20T01:41:59;21.10;99.90
41678;DHT22;27364;49.026;8.712;2023-08-20T01:44:24;21.10;99.90
41678;DHT22;27364;49.026;8.712;2023-08-20T01:46:50;21.10;99.90
41678;DHT22;27364;49.026;8.712;2023-08-20T01:49:15;21.00;99.90
41678;DHT22;27364;49.026;8.712;2023-08-20T01:51:41;21.00;99.90
41678;DHT22;27364;49.026;8.712;2023-08-20T01:54:06;21.00;99.90
41678;DHT22;27364;49.026;8.712;2023-08-20T01:56:32;21.00;99.90
41678;DHT22;27364;49.026;8.712;2023-08-20T01:58:57;21.00;99.90
41678;DHT22;27364;49.026;8.712;2023-08-20T02:01:23;21.00;99.90
41678;DHT22;27364;49.026;8.712;2023-08-20T02:03:48;20.90;99.90
41678;DHT22;27364;49.026;8.712;2023-08-20T02:06:14;20.90;99.90
41678;DHT22;27364;49.026;8.712;2023-08-20T02:08:40;20.90;99.90
41678;DHT22;27364;49.026;8.712;2023-08-20T02:11:05;20.90;99.90
41678;DHT22;27364;49.026;8.712;2023-08-20T02:13:31;20.90;99.90
41678;DHT22;27364;49.026;8.712;2023-08-20T02:16:01;20.90;99.90
41678;DHT22;27364;49.026;8.712;2023-08-20T02:18:28;20.80;99.90
41678;DHT22;27364;49.026;8.712;2023-08-20T02:20:54;20.90;99.90
41678;DHT22;27364;49.026;8.712;2023-08-20T02:23:20;20.90;99.90
41678;DHT22;27364;49.026;8.712;2023-08-20T02:25:47;20.80;99.90
41678;DHT22;27364;49.026;8.712;2023-08-20T02:28:12;20.90;99.90
41678;DHT22;27364;49.026;8.712;2023-08-20T02:30:45;20.80;99.90
41678;DHT22;27364;49.026;8.712;2023-08-20T02:33:11;20.80;99.90
41678;DHT22;27364;49.026;8.712;2023-08-20T02:35:38;20.80;99.90
41678;DHT22;27364;49.026;8.712;2023-08-20T02:38:04;20.80;99.90
41678;DHT22;27364;49.026;8.712;2023-08-20T02:40:30;20.80;99.90
41678;DHT22;27364;49.026;8.712;2023-08-20T02:42:55;20.80;99.90
41678;DHT22;27364;49.026;8.712;2023-08-20T02:45:21;20.70;99.90
41678;DHT22;27364;49.026;8.712;2023-08-20T02:47:47;20.70;99.90
41678;DHT22;27364;49.026;8.712;2023-08-20T02:50:13;20.70;99.90
41678;DHT22;27364;49.026;8.712;2023-08-20T02:52:38;20.60;99.90
41678;DHT22;27364;49.026;8.712;2023-08-20T02:55:04;20.60;99.90
41678;DHT22;27364;49.026;8.712;2023-08-20T02:57:32;20.60;99.90
41678;DHT22;27364;49.026;8.712;2023-08-20T02:59:57;20.60;99.90
41678;DHT22;27364;49.026;8.712;2023-08-20T03:02:23;20.60;99.90
41678;DHT22;27364;49.026;8.712;2023-08-20T03:04:48;20.50;99.90
41678;DHT22;27364;49.026;8.712;2023-08-20T03:07:14;20.50;99.90
41678;DHT22;27364;49.026;8.712;2023-08-20T03:09:40;20.50;99.90
41678;DHT22;27364;49.026;8.712;2023-08-20T03:12:05;20.50;99.90
41678;DHT22;27364;49.026;8.712;2023-08-20T03:14:31;20.50;99.90
41678;DHT22;27364;49.026;8.712;2023-08-20T03:16:56;20.50;99.90
41678;DHT22;27364;49.026;8.712;2023-08-20T03:19:22;20.50;99.90
41678;DHT22;27364;49.026;8.712;2023-08-20T03:21:48;20.50;99.90
41678;DHT22;27364;49.026;8.712;2023-08-20T03:24:13;20.50;99.90
41678;DHT22;27364;49.026;8.712;2023-08-20T03:26:39;20.50;99.90
41678;DHT22;27364;49.026;8.712;2023-08-20T03:29:04;20.50;99.90
41678;DHT22;27364;49.026;8.712;2023-08-20T03:31:31;20.50;99.90
41678;DHT22;27364;49.026;8.712;2023-08-20T03:33:56;20.40;99.90
41678;DHT22;27364;49.026;8.712;2023-08-20T03:36:22;20.40;99.90
41678;DHT22;27364;49.026;8.712;2023-08-20T03:38:47;20.40;99.90
41678;DHT22;27364;49.026;8.712;2023-08-20T03:41:13;20.40;99.90
41678;DHT22;27364;49.026;8.712;2023-08-20T03:43:39;20.30;99.90
41678;DHT22;27364;49.026;8.712;2023-08-20T03:46:05;20.30;99.90
41678;DHT22;27364;49.026;8.712;2023-08-20T03:48:30;20.30;99.90
41678;DHT22;27364;49.026;8.712;2023-08-20T03:50:56;20.30;99.90
41678;DHT22;27364;49.026;8.712;2023-08-20T03:53:21;20.30;99.90
41678;DHT22;27364;49.026;8.712;2023-08-20T03:55:48;20.20;99.90
41678;DHT22;27364;49.026;8.712;2023-08-20T03:58:14;20.20;99.90
41678;DHT22;27364;49.026;8.712;2023-08-20T04:00:39;20.10;99.90
41678;DHT22;27364;49.026;8.712;2023-08-20T04:03:05;20.00;99.90
41678;DHT22;27364;49.026;8.712;2023-08-20T04:05:36;20.00;99.90
41678;DHT22;27364;49.026;8.712;2023-08-20T04:08:02;20.00;99.90
41678;DHT22;27364;49.026;8.712;2023-08-20T04:10:28;19.90;99.90
41678;DHT22;27364;49.026;8.712;2023-08-20T04:12:53;19.80;99.90
41678;DHT22;27364;49.026;8.712;2023-08-20T04:15:19;19.90;99.90
41678;DHT22;27364;49.026;8.712;2023-08-20T04:17:44;19.80;99.90
41678;DHT22;27364;49.026;8.712;2023-08-20T04:20:10;19.90;99.90
41678;DHT22;27364;49.026;8.712;2023-08-20T04:22:37;19.90;99.90
41678;DHT22;27364;49.026;8.712;2023-08-20T04:25:03;20.00;99.90
41678;DHT22;27364;49.026;8.712;2023-08-20T04:27:28;20.10;99.90
41678;DHT22;27364;49.026;8.712;2023-08-20T04:29:55;20.20;99.90
41678;DHT22;27364;49.026;8.712;2023-08-20T04:32:21;20.20;99.90
41678;DHT22;27364;49.026;8.712;2023-08-20T04:34:46;20.10;99.90
41678;DHT22;27364;49.026;8.712;2023-08-20T04:37:14;20.20;99.90
41678;DHT22;27364;49.026;8.712;2023-08-20T04:39:40;20.30;99.90
41678;DHT22;27364;49.026;8.712;2023-08-20T04:42:05;20.30;99.90
41678;DHT22;27364;49.026;8.712;2023-08-20T04:44:31;20.40;99.90
41678;DHT22;27364;49.026;8.712;2023-08-20T04:46:57;20.40;99.90
41678;DHT22;27364;49.026;8.712;2023-08-20T04:49:22;20.40;99.90
41678;DHT22;27364;49.026;8.712;2023-08-20T04:51:48;20.50;99.90
41678;DHT22;27364;49.026;8.712;2023-08-20T04:54:13;20.50;99.90
41678;DHT22;27364;49.026;8.712;2023-08-20T04:56:39;20.40;99.90
41678;DHT22;27364;49.026;8.712;2023-08-20T04:59:04;20.30;99.90
41678;DHT22;27364;49.026;8.712;2023-08-20T05:01:30;20.30;99.90
41678;DHT22;27364;49.026;8.712;2023-08-20T05:03:55;20.30;99.90
41678;DHT22;27364;49.026;8.712;2023-08-20T05:06:21;20.20;99.90
41678;DHT22;27364;49.026;8.712;2023-08-20T05:08:46;20.20;99.90
41678;DHT22;27364;49.026;8.712;2023-08-20T05:11:12;20.20;99.90
41678;DHT22;27364;49.026;8.712;2023-08-20T05:13:37;20.20;99.90
41678;DHT22;27364;49.026;8.712;2023-08-20T05:16:03;20.20;99.90
41678;DHT22;27364;49.026;8.712;2023-08-20T05:18:28;20.20;99.90
41678;DHT22;27364;49.026;8.712;2023-08-20T05:20:54;20.20;99.90
41678;DHT22;27364;49.026;8.712;2023-08-20T05:23:19;20.30;99.90
41678;DHT22;27364;49.026;8.712;2023-08-20T05:25:45;20.30;99.90
41678;DHT22;27364;49.026;8.712;2023-08-20T05:28:10;20.30;99.90
41678;DHT22;27364;49.026;8.712;2023-08-20T05:30:36;20.30;99.90
41678;DHT22;27364;49.026;8.712;2023-08-20T05:33:01;20.40;99.90
41678;DHT22;27364;49.026;8.712;2023-08-20T05:35:27;20.30;99.90
41678;DHT22;27364;49.026;8.712;2023-08-20T05:37:53;20.30;99.90
41678;DHT22;27364;49.026;8.712;2023-08-20T05:40:19;20.30;99.90
41678;DHT22;27364;49.026;8.712;2023-08-20T05:42:46;20.30;99.90
41678;DHT22;27364;49.026;8.712;2023-08-20T05:45:11;20.40;99.90
41678;DHT22;27364;49.026;8.712;2023-08-20T05:47:37;20.40;99.90
41678;DHT22;27364;49.026;8.712;2023-08-20T05:50:02;20.40;99.90
41678;DHT22;27364;49.026;8.712;2023-08-20T05:52:28;20.50;99.90
41678;DHT22;27364;49.026;8.712;2023-08-20T05:54:53;20.50;99.90
41678;DHT22;27364;49.026;8.712;2023-08-20T05:57:19;20.60;99.90
41678;DHT22;27364;49.026;8.712;2023-08-20T05:59:45;20.60;99.90
41678;DHT22;27364;49.026;8.712;2023-08-20T06:02:15;20.70;99.90
41678;DHT22;27364;49.026;8.712;2023-08-20T06:04:40;20.80;99.90
41678;DHT22;27364;49.026;8.712;2023-08-20T06:07:06;20.80;99.90
41678;DHT22;27364;49.026;8.712;2023-08-20T06:09:31;21.00;99.90
41678;DHT22;27364;49.026;8.712;2023-08-20T06:11:57;21.10;99.90
41678;DHT22;27364;49.026;8.712;2023-08-20T06:14:22;21.10;99.90
41678;DHT22;27364;49.026;8.712;2023-08-20T06:16:48;21.10;99.90
41678;DHT22;27364;49.026;8.712;2023-08-20T06:19:14;21.20;99.90
41678;DHT22;27364;49.026;8.712;2023-08-20T06:21:39;21.20;99.90
41678;DHT22;27364;49.026;8.712;2023-08-20T06:24:05;21.20;99.90
41678;DHT22;27364;49.026;8.712;2023-08-20T06:26:30;21.30;99.90
41678;DHT22;27364;49.026;8.712;2023-08-20T06:28:56;21.30;99.90
41678;DHT22;27364;49.026;8.712;2023-08-20T06:31:22;21.40;99.90
41678;DHT22;27364;49.026;8.712;2023-08-20T06:33:48;21.40;99.90
41678;DHT22;27364;49.026;8.712;2023-08-20T06:36:13;21.60;99.90
41678;DHT22;27364;49.026;8.712;2023-08-20T06:38:38;21.60;99.90
41678;DHT22;27364;49.026;8.712;2023-08-20T06:41:04;21.60;99.90
41678;DHT22;27364;49.026;8.712;2023-08-20T06:43:29;21.70;99.90
41678;DHT22;27364;49.026;8.712;2023-08-20T06:45:55;21.80;99.90
41678;DHT22;27364;49.026;8.712;2023-08-20T06:48:21;21.90;99.90
41678;DHT22;27364;49.026;8.712;2023-08-20T06:50:48;21.90;99.90
41678;DHT22;27364;49.026;8.712;2023-08-20T06:53:14;21.90;99.90
41678;DHT22;27364;49.026;8.712;2023-08-20T06:55:39;22.00;99.90
41678;DHT22;27364;49.026;8.712;2023-08-20T06:58:05;22.00;99.90
41678;DHT22;27364;49.026;8.712;2023-08-20T07:00:30;22.10;99.90
41678;DHT22;27364;49.026;8.712;2023-08-20T07:02:56;22.10;99.90
41678;DHT22;27364;49.026;8.712;2023-08-20T07:05:21;22.10;99.90
41678;DHT22;27364;49.026;8.712;2023-08-20T07:07:47;22.20;99.90
41678;DHT22;27364;49.026;8.712;2023-08-20T07:10:12;22.30;99.90
41678;DHT22;27364;49.026;8.712;2023-08-20T07:12:38;22.30;99.90
41678;DHT22;27364;49.026;8.712;2023-08-20T07:15:05;22.30;99.90
41678;DHT22;27364;49.026;8.712;2023-08-20T07:17:31;22.40;99.90
41678;DHT22;27364;49.026;8.712;2023-08-20T07:19:56;22.40;99.90
41678;DHT22;27364;49.026;8.712;2023-08-20T07:22:22;22.50;99.90
41678;DHT22;27364;49.026;8.712;2023-08-20T07:24:47;22.50;99.90
41678;DHT22;27364;49.026;8.712;2023-08-20T07:27:13;22.60;99.90
41678;DHT22;27364;49.026;8.712;2023-08-20T07:29:38;22.60;99.90
41678;DHT22;27364;49.026;8.712;2023-08-20T07:32:04;22.60;99.90
41678;DHT22;27364;49.026;8.712;2023-08-20T07:34:30;22.70;99.90
41678;DHT22;27364;49.026;8.712;2023-08-20T07:37:00;22.70;99.90
41678;DHT22;27364;49.026;8.712;2023-08-20T07:39:26;22.80;99.90
41678;DHT22;27364;49.026;8.712;2023-08-20T07:41:51;22.80;99.90
41678;DHT22;27364;49.026;8.712;2023-08-20T07:44:17;22.90;99.90
41678;DHT22;27364;49.026;8.712;2023-08-20T07:46:42;22.90;99.90
41678;DHT22;27364;49.026;8.712;2023-08-20T07:49:09;22.90;99.90
41678;DHT22;27364;49.026;8.712;2023-08-20T07:51:34;23.00;99.90
41678;DHT22;27364;49.026;8.712;2023-08-20T07:54:00;23.10;99.90
41678;DHT22;27364;49.026;8.712;2023-08-20T07:56:26;23.20;99.90
41678;DHT22;27364;49.026;8.712;2023-08-20T07:58:52;23.30;99.90
41678;DHT22;27364;49.026;8.712;2023-08-20T08:01:17;23.40;99.90
41678;DHT22;27364;49.026;8.712;2023-08-20T08:03:43;23.40;99.90
41678;DHT22;27364;49.026;8.712;2023-08-20T08:06:08;23.40;99.90
41678;DHT22;27364;49.026;8.712;2023-08-20T08:08:34;23.50;99.90
41678;DHT22;27364;49.026;8.712;2023-08-20T08:10:59;23.60;99.90
41678;DHT22;27364;49.026;8.712;2023-08-20T08:13:25;23.60;99.90
41678;DHT22;27364;49.026;8.712;2023-08-20T08:15:51;23.80;99.90
41678;DHT22;27364;49.026;8.712;2023-08-20T08:18:18;23.90;99.90
41678;DHT22;27364;49.026;8.712;2023-08-20T08:20:43;23.90;99.90
41678;DHT22;27364;49.026;8.712;2023-08-20T08:23:09;24.10;99.90
41678;DHT22;27364;49.026;8.712;2023-08-20T08:25:34;24.20;99.90
41678;DHT22;27364;49.026;8.712;2023-08-20T08:28:00;24.30;99.90
41678;DHT22;27364;49.026;8.712;2023-08-20T08:30:26;24.40;99.90
41678;DHT22;27364;49.026;8.712;2023-08-20T08:32:51;24.50;99.90
41678;DHT22;27364;49.026;8.712;2023-08-20T08:35:17;24.60;99.90
41678;DHT22;27364;49.026;8.712;2023-08-20T08:37:43;24.60;99.90
41678;DHT22;27364;49.026;8.712;2023-08-20T08:40:09;24.70;99.90
41678;DHT22;27364;49.026;8.712;2023-08-20T08:42:35;24.60;99.90
41678;DHT22;27364;49.026;8.712;2023-08-20T08:45:00;24.60;99.90
41678;DHT22;27364;49.026;8.712;2023-08-20T08:47:26;24.60;99.90
41678;DHT22;27364;49.026;8.712;2023-08-20T08:49:55;24.70;99.90
41678;DHT22;27364;49.026;8.712;2023-08-20T08:52:23;24.70;99.90
41678;DHT22;27364;49.026;8.712;2023-08-20T08:54:48;24.90;99.90
41678;DHT22;27364;49.026;8.712;2023-08-20T08:57:15;25.00;99.90
41678;DHT22;27364;49.026;8.712;2023-08-20T08:59:41;25.10;99.90
41678;DHT22;27364;49.026;8.712;2023-08-20T09:02:11;25.40;99.90
41678;DHT22;27364;49.026;8.712;2023-08-20T09:04:41;25.50;99.90
41678;DHT22;27364;49.026;8.712;2023-08-20T09:07:14;25.60;99.90
41678;DHT22;27364;49.026;8.712;2023-08-20T09:09:44;25.70;99.90
41678;DHT22;27364;49.026;8.712;2023-08-20T09:12:18;25.80;99.90
41678;DHT22;27364;49.026;8.712;2023-08-20T09:14:46;25.90;99.90
41678;DHT22;27364;49.026;8.712;2023-08-20T09:17:13;25.90;99.90
41678;DHT22;27364;49.026;8.712;2023-08-20T09:19:38;26.00;99.90
41678;DHT22;27364;49.026;8.712;2023-08-20T09:22:04;26.00;99.90
41678;DHT22;27364;49.026;8.712;2023-08-20T09:24:38;26.20;99.90
41678;DHT22;27364;49.026;8.712;2023-08-20T09:27:05;26.30;99.90
41678;DHT22;27364;49.026;8.712;2023-08-20T09:32:23;26.40;99.90
41678;DHT22;27364;49.026;8.712;2023-08-20T09:34:50;26.50;99.90
41678;DHT22;27364;49.026;8.712;2023-08-20T09:37:19;26.50;99.90
41678;DHT22;27364;49.026;8.712;2023-08-20T09:39:44;26.60;99.90
41678;DHT22;27364;49.026;8.712;2023-08-20T09:42:11;26.60;99.90
41678;DHT22;27364;49.026;8.712;2023-08-20T09:44:39;26.70;99.90
41678;DHT22;27364;49.026;8.712;2023-08-20T09:47:09;26.70;99.90
41678;DHT22;27364;49.026;8.712;2023-08-20T09:49:40;26.90;99.90
41678;DHT22;27364;49.026;8.712;2023-08-20T09:52:08;27.00;99.90
41678;DHT22;27364;49.026;8.712;2023-08-20T10:00:02;27.20;99.90
41678;DHT22;27364;49.026;8.712;2023-08-20T10:02:29;27.30;99.90
41678;DHT22;27364;49.026;8.712;2023-08-20T10:04:56;27.30;99.90
41678;DHT22;27364;49.026;8.712;2023-08-20T10:07:25;27.50;99.90
41678;DHT22;27364;49.026;8.712;2023-08-20T10:09:53;27.60;99.90
41678;DHT22;27364;49.026;8.712;2023-08-20T10:12:19;27.60;99.90
41678;DHT22;27364;49.026;8.712;2023-08-20T10:14:47;27.60;99.90
41678;DHT22;27364;49.026;8.712;2023-08-20T10:17:14;27.80;99.90
41678;DHT22;27364;49.026;8.712;2023-08-20T10:19:41;27.70;99.90
41678;DHT22;27364;49.026;8.712;2023-08-20T10:22:07;27.90;99.90
41678;DHT22;27364;49.026;8.712;2023-08-20T10:24:54;28.00;99.90
41678;DHT22;27364;49.026;8.712;2023-08-20T10:27:26;28.10;99.90
41678;DHT22;27364;49.026;8.712;2023-08-20T10:29:53;28.10;99.90
41678;DHT22;27364;49.026;8.712;2023-08-20T10:32:19;28.20;99.90
41678;DHT22;27364;49.026;8.712;2023-08-20T10:34:50;28.20;99.90
41678;DHT22;27364;49.026;8.712;2023-08-20T10:37:27;28.20;99.90
41678;DHT22;27364;49.026;8.712;2023-08-20T10:39:57;28.40;99.90
41678;DHT22;27364;49.026;8.712;2023-08-20T10:42:26;28.40;99.90
41678;DHT22;27364;49.026;8.712;2023-08-20T10:45:05;28.50;99.90
41678;DHT22;27364;49.026;8.712;2023-08-20T10:47:47;28.60;99.90
41678;DHT22;27364;49.026;8.712;2023-08-20T10:50:24;28.70;99.90
41678;DHT22;27364;49.026;8.712;2023-08-20T10:53:03;28.80;99.90
41678;DHT22;27364;49.026;8.712;2023-08-20T10:55:30;28.90;99.90
41678;DHT22;27364;49.026;8.712;2023-08-20T10:57:57;29.00;99.90
41678;DHT22;27364;49.026;8.712;2023-08-20T11:00:27;29.00;99.90
41678;DHT22;27364;49.026;8.712;2023-08-20T11:02:53;29.10;99.90
41678;DHT22;27364;49.026;8.712;2023-08-20T11:05:22;29.40;99.90
41678;DHT22;27364;49.026;8.712;2023-08-20T11:07:48;29.40;99.90
41678;DHT22;27364;49.026;8.712;2023-08-20T11:10:15;29.40;99.90
41678;DHT22;27364;49.026;8.712;2023-08-20T11:12:45;29.60;99.90
41678;DHT22;27364;49.026;8.712;2023-08-20T11:15:13;29.60;99.90
41678;DHT22;27364;49.026;8.712;2023-08-20T11:17:47;29.90;99.90
41678;DHT22;27364;49.026;8.712;2023-08-20T11:20:14;30.10;99.90
41678;DHT22;27364;49.026;8.712;2023-08-20T11:22:41;30.30;99.90
41678;DHT22;27364;49.026;8.712;2023-08-20T11:25:15;30.40;99.90
41678;DHT22;27364;49.026;8.712;2023-08-20T11:27:42;30.30;99.90
41678;DHT22;27364;49.026;8.712;2023-08-20T11:30:09;30.10;99.90
41678;DHT22;27364;49.026;8.712;2023-08-20T11:32:37;30.00;99.90
41678;DHT22;27364;49.026;8.712;2023-08-20T11:35:04;29.70;99.90
41678;DHT22;27364;49.026;8.712;2023-08-20T11:37:30;29.70;99.90
41678;DHT22;27364;49.026;8.712;2023-08-20T11:39:56;29.70;99.90
41678;DHT22;27364;49.026;8.712;2023-08-20T11:42:22;29.80;99.90
41678;DHT22;27364;49.026;8.712;2023-08-20T11:44:49;29.80;99.90
41678;DHT22;27364;49.026;8.712;2023-08-20T11:47:18;30.10;99.90
41678;DHT22;27364;49.026;8.712;2023-08-20T11:49:44;30.20;99.90
41678;DHT22;27364;49.026;8.712;2023-08-20T11:52:11;30.40;99.90
41678;DHT22;27364;49.026;8.712;2023-08-20T11:54:38;30.40;99.90
41678;DHT22;27364;49.026;8.712;2023-08-20T11:57:05;30.60;99.90
41678;DHT22;27364;49.026;8.712;2023-08-20T11:59:33;30.70;99.90
41678;DHT22;27364;49.026;8.712;2023-08-20T12:02:00;30.60;99.90
41678;DHT22;27364;49.026;8.712;2023-08-20T12:04:27;30.70;99.90
41678;DHT22;27364;49.026;8.712;2023-08-20T12:07:03;30.70;99.90
41678;DHT22;27364;49.026;8.712;2023-08-20T12:09:30;30.70;99.90
41678;DHT22;27364;49.026;8.712;2023-08-20T12:11:56;30.80;99.90
41678;DHT22;27364;49.026;8.712;2023-08-20T12:14:23;31.00;99.90
41678;DHT22;27364;49.026;8.712;2023-08-20T12:16:49;30.80;99.90
41678;DHT22;27364;49.026;8.712;2023-08-20T12:19:16;30.80;99.70
41678;DHT22;27364;49.026;8.712;2023-08-20T12:21:42;30.90;99.90
41678;DHT22;27364;49.026;8.712;2023-08-20T12:24:09;30.90;99.90
41678;DHT22;27364;49.026;8.712;2023-08-20T12:26:35;31.00;99.90
41678;DHT22;27364;49.026;8.712;2023-08-20T12:29:01;31.10;99.90
41678;DHT22;27364;49.026;8.712;2023-08-20T12:31:27;31.30;98.30
41678;DHT22;27364;49.026;8.712;2023-08-20T12:33:52;31.30;99.10
41678;DHT22;27364;49.026;8.712;2023-08-20T12:36:18;31.30;97.60
41678;DHT22;27364;49.026;8.712;2023-08-20T12:38:43;31.40;99.90
41678;DHT22;27364;49.026;8.712;2023-08-20T12:41:09;31.60;96.60
41678;DHT22;27364;49.026;8.712;2023-08-20T12:43:34;31.60;97.40
41678;DHT22;27364;49.026;8.712;2023-08-20T12:46:00;31.70;96.10
41678;DHT22;27364;49.026;8.712;2023-08-20T12:48:25;31.70;96.70
41678;DHT22;27364;49.026;8.712;2023-08-20T12:50:52;31.90;95.90
41678;DHT22;27364;49.026;8.712;2023-08-20T12:53:18;32.10;95.90
41678;DHT22;27364;49.026;8.712;2023-08-20T12:55:44;32.10;95.00
41678;DHT22;27364;49.026;8.712;2023-08-20T12:58:10;32.10;95.00
41678;DHT22;27364;49.026;8.712;2023-08-20T13:00:36;32.00;94.80
41678;DHT22;27364;49.026;8.712;2023-08-20T13:03:01;31.70;93.60
41678;DHT22;27364;49.026;8.712;2023-08-20T13:05:27;31.70;92.80
41678;DHT22;27364;49.026;8.712;2023-08-20T13:07:53;31.70;92.40
41678;DHT22;27364;49.026;8.712;2023-08-20T13:10:19;31.70;92.70
41678;DHT22;27364;49.026;8.712;2023-08-20T13:12:50;31.70;92.90
41678;DHT22;27364;49.026;8.712;2023-08-20T13:15:20;31.80;93.00
41678;DHT22;27364;49.026;8.712;2023-08-20T13:17:47;32.00;92.90
41678;DHT22;27364;49.026;8.712;2023-08-20T13:20:14;32.00;92.40
41678;DHT22;27364;49.026;8.712;2023-08-20T13:22:40;32.00;92.10
41678;DHT22;27364;49.026;8.712;2023-08-20T13:25:06;32.00;92.40
41678;DHT22;27364;49.026;8.712;2023-08-20T13:27:34;32.00;91.90
41678;DHT22;27364;49.026;8.712;2023-08-20T13:29:59;32.10;91.90
41678;DHT22;27364;49.026;8.712;2023-08-20T13:32:26;32.20;92.40
41678;DHT22;27364;49.026;8.712;2023-08-20T13:34:52;32.40;92.00
41678;DHT22;27364;49.026;8.712;2023-08-20T13:37:17;32.60;93.60
41678;DHT22;27364;49.026;8.712;2023-08-20T13:39:43;32.90;92.20
41678;DHT22;27364;49.026;8.712;2023-08-20T13:42:09;32.80;90.60
41678;DHT22;27364;49.026;8.712;2023-08-20T13:44:34;32.70;90.60
41678;DHT22;27364;49.026;8.712;2023-08-20T13:47:00;32.60;90.30
41678;DHT22;27364;49.026;8.712;2023-08-20T13:49:28;32.60;91.00
41678;DHT22;27364;49.026;8.712;2023-08-20T13:51:54;32.60;89.50
41678;DHT22;27364;49.026;8.712;2023-08-20T13:54:20;32.80;91.30
41678;DHT22;27364;49.026;8.712;2023-08-20T13:56:45;32.90;91.70
41678;DHT22;27364;49.026;8.712;2023-08-20T13:59:11;33.10;92.30
41678;DHT22;27364;49.026;8.712;2023-08-20T14:01:36;33.10;90.60
41678;DHT22;27364;49.026;8.712;2023-08-20T14:04:02;33.20;90.00
41678;DHT22;27364;49.026;8.712;2023-08-20T14:06:28;33.30;92.40
41678;DHT22;27364;49.026;8.712;2023-08-20T14:08:54;33.30;89.80
41678;DHT22;27364;49.026;8.712;2023-08-20T14:11:19;33.30;89.30
41678;DHT22;27364;49.026;8.712;2023-08-20T14:13:45;33.20;88.00
41678;DHT22;27364;49.026;8.712;2023-08-20T14:16:11;33.10;90.00
41678;DHT22;27364;49.026;8.712;2023-08-20T14:18:36;33.20;89.10
41678;DHT22;27364;49.026;8.712;2023-08-20T14:21:02;33.30;90.10
41678;DHT22;27364;49.026;8.712;2023-08-20T14:23:28;33.20;89.60
41678;DHT22;27364;49.026;8.712;2023-08-20T14:25:55;33.30;87.00
41678;DHT22;27364;49.026;8.712;2023-08-20T14:28:21;33.40;88.90
41678;DHT22;27364;49.026;8.712;2023-08-20T14:30:48;33.50;88.30
41678;DHT22;27364;49.026;8.712;2023-08-20T14:33:14;33.60;85.20
41678;DHT22;27364;49.026;8.712;2023-08-20T14:35:40;33.70;89.40
41678;DHT22;27364;49.026;8.712;2023-08-20T14:38:08;33.70;88.20
41678;DHT22;27364;49.026;8.712;2023-08-20T14:40:37;33.60;87.80
41678;DHT22;27364;49.026;8.712;2023-08-20T14:43:08;33.70;83.60
41678;DHT22;27364;49.026;8.712;2023-08-20T14:45:34;33.70;83.30
41678;DHT22;27364;49.026;8.712;2023-08-20T14:47:59;33.80;88.10
41678;DHT22;27364;49.026;8.712;2023-08-20T14:50:25;33.80;84.50
41678;DHT22;27364;49.026;8.712;2023-08-20T14:52:50;33.80;84.70
41678;DHT22;27364;49.026;8.712;2023-08-20T14:55:19;33.70;84.70
41678;DHT22;27364;49.026;8.712;2023-08-20T14:57:45;33.60;83.30
41678;DHT22;27364;49.026;8.712;2023-08-20T15:00:11;33.50;87.60
41678;DHT22;27364;49.026;8.712;2023-08-20T15:02:41;33.50;82.10
41678;DHT22;27364;49.026;8.712;2023-08-20T15:05:07;33.50;82.70
41678;DHT22;27364;49.026;8.712;2023-08-20T15:07:33;33.50;80.70
41678;DHT22;27364;49.026;8.712;2023-08-20T15:09:58;33.30;84.00
41678;DHT22;27364;49.026;8.712;2023-08-20T15:12:26;33.20;82.20
41678;DHT22;27364;49.026;8.712;2023-08-20T15:14:52;33.20;84.30
41678;DHT22;27364;49.026;8.712;2023-08-20T15:17:17;33.10;82.90
41678;DHT22;27364;49.026;8.712;2023-08-20T15:19:43;33.10;82.60
41678;DHT22;27364;49.026;8.712;2023-08-20T15:22:09;33.00;83.40
41678;DHT22;27364;49.026;8.712;2023-08-20T15:24:34;32.90;82.50
41678;DHT22;27364;49.026;8.712;2023-08-20T15:27:00;32.80;84.00
41678;DHT22;27364;49.026;8.712;2023-08-20T15:29:25;32.80;82.30
41678;DHT22;27364;49.026;8.712;2023-08-20T15:31:51;32.70;80.10
41678;DHT22;27364;49.026;8.712;2023-08-20T15:34:17;32.70;78.40
41678;DHT22;27364;49.026;8.712;2023-08-20T15:36:43;32.50;80.90
41678;DHT22;27364;49.026;8.712;2023-08-20T15:39:09;32.60;80.30
41678;DHT22;27364;49.026;8.712;2023-08-20T15:41:34;32.40;79.50
41678;DHT22;27364;49.026;8.712;2023-08-20T15:44:00;32.50;80.00